Aeroclube Airport


Codes: SSAQ/0
Name: Aeroclube Airport
City: Passo Fundo
Country: Brazil
Elevation: 1969 ft.

Photos at Aeroclube Airport


   Photos courtesy of SpottingLog. You can add your own sightings and photos by signing up for a free trial today.



No photos found.

Weather at Aeroclube Airport


Time (UTC)DescriptionTempratureWindCloud coverageVisibilityPressureHumidity
21-Jun-2024 12:00Light Rain17°C16 mph, NE75%10000m1017hPa88%
21-Jun-2024 15:00Broken Clouds17°C16 mph, NE83%10000m1017hPa86%
21-Jun-2024 18:00Broken Clouds20°C13 mph, NE76%10000m1014hPa80%
21-Jun-2024 21:00Broken Clouds19°C11 mph, NE79%10000m1012hPa82%
22-Jun-2024 00:00Broken Clouds17°C9 mph, NE83%10000m1014hPa87%
22-Jun-2024 03:00Clear Sky16°C11 mph, NE6%10000m1014hPa84%
22-Jun-2024 06:00Clear Sky15°C11 mph, NE5%10000m1013hPa80%
22-Jun-2024 09:00Clear Sky14°C11 mph, NE0%10000m1013hPa76%
22-Jun-2024 12:00Clear Sky16°C13 mph, NE0%10000m1014hPa72%
22-Jun-2024 15:00Clear Sky22°C13 mph, N0%10000m1013hPa65%
22-Jun-2024 18:00Clear Sky23°C13 mph, N0%10000m1010hPa66%
22-Jun-2024 21:00Clear Sky19°C9 mph, N0%10000m1010hPa81%
23-Jun-2024 00:00Clear Sky17°C11 mph, NE9%10000m1011hPa77%
23-Jun-2024 03:00Overcast Clouds17°C13 mph, N99%10000m1010hPa72%
23-Jun-2024 06:00Light Rain17°C11 mph, NE95%10000m1009hPa78%
23-Jun-2024 09:00Scattered Clouds17°C13 mph, N35%10000m1009hPa69%
23-Jun-2024 12:00Scattered Clouds18°C13 mph, N28%10000m1010hPa71%
23-Jun-2024 15:00Broken Clouds21°C13 mph, NW78%10000m1010hPa67%
23-Jun-2024 18:00Overcast Clouds23°C13 mph, NW89%10000m1008hPa69%
23-Jun-2024 21:00Overcast Clouds19°C7 mph, N100%10000m1009hPa81%
24-Jun-2024 00:00Overcast Clouds18°C4 mph, NW100%10000m1011hPa82%
24-Jun-2024 03:00Overcast Clouds18°C4 mph, SW100%10000m1011hPa82%
24-Jun-2024 06:00Light Rain16°C4 mph, S100%10000m1012hPa98%
24-Jun-2024 09:00Moderate Rain16°C4 mph, E100%9282m1011hPa99%
24-Jun-2024 12:00Moderate Rain16°C9 mph, SW100%248m1014hPa99%
24-Jun-2024 15:00Moderate Rain12°C11 mph, SE100%7911m1017hPa96%
24-Jun-2024 18:00Light Rain11°C11 mph, S100%10000m1018hPa95%
24-Jun-2024 21:00Light Rain11°C11 mph, SE100%10000m1020hPa95%
25-Jun-2024 00:00Overcast Clouds10°C13 mph, SE100%10000m1023hPa92%
25-Jun-2024 03:00Overcast Clouds9°C13 mph, SE100%10000m1024hPa87%
25-Jun-2024 06:00Overcast Clouds8°C13 mph, SE99%10000m1024hPa87%
25-Jun-2024 09:00Broken Clouds6°C13 mph, SE58%10000m1024hPa91%
25-Jun-2024 12:00Scattered Clouds8°C13 mph, SE49%10000m1025hPa86%
25-Jun-2024 15:00Overcast Clouds12°C13 mph, SE94%10000m1023hPa74%
25-Jun-2024 18:00Overcast Clouds11°C11 mph, E97%10000m1021hPa84%
25-Jun-2024 21:00Overcast Clouds11°C11 mph, E100%10000m1020hPa88%
26-Jun-2024 00:00Overcast Clouds11°C11 mph, E100%10000m1019hPa88%
26-Jun-2024 03:00Overcast Clouds11°C13 mph, NE100%10000m1018hPa88%
26-Jun-2024 06:00Light Rain12°C13 mph, NE100%10000m1016hPa93%
26-Jun-2024 09:00Light Rain12°C11 mph, NE100%10000m1015hPa94%